createdAt,value
2023-04-10T00:02:24.913Z,3.63
2023-04-10T00:04:52.257Z,3.97
2023-04-10T00:07:19.165Z,3.78
2023-04-10T00:09:45.968Z,4.50
2023-04-10T00:12:12.933Z,3.88
2023-04-10T00:14:39.781Z,4.13
2023-04-10T00:17:06.836Z,4.30
2023-04-10T00:19:33.913Z,4.25
2023-04-10T00:22:01.036Z,3.60
2023-04-10T00:24:27.951Z,3.85
2023-04-10T00:26:54.730Z,3.63
2023-04-10T00:29:21.528Z,3.50
2023-04-10T00:31:49.086Z,3.70
2023-04-10T00:34:16.259Z,3.85
2023-04-10T00:36:45.360Z,3.72
2023-04-10T00:39:12.880Z,3.38
2023-04-10T00:41:40.368Z,3.95
2023-04-10T00:44:07.415Z,4.28
2023-04-10T00:46:35.437Z,4.05
2023-04-10T00:49:02.446Z,3.85
2023-04-10T00:51:29.299Z,4.03
2023-04-10T00:53:56.900Z,3.92
2023-04-10T00:56:24.878Z,3.92
2023-04-10T00:58:51.754Z,4.10
2023-04-10T01:01:19.111Z,3.72
2023-04-10T01:03:46.309Z,4.20
2023-04-10T01:07:04.016Z,3.95
2023-04-10T01:09:41.897Z,3.70
2023-04-10T01:12:27.359Z,3.83
2023-04-10T01:15:15.808Z,4.10
2023-04-10T01:18:13.332Z,4.10
2023-04-10T01:20:42.090Z,4.18
2023-04-10T01:23:21.883Z,4.47
2023-04-10T01:26:01.722Z,4.38
2023-04-10T01:28:38.232Z,3.92
2023-04-10T01:31:08.736Z,4.32
2023-04-10T01:33:49.616Z,3.83
2023-04-10T01:36:24.229Z,4.28
2023-04-10T01:38:53.675Z,4.57
2023-04-10T01:41:22.138Z,4.40
2023-04-10T01:43:52.486Z,4.18
2023-04-10T01:46:21.132Z,4.40
2023-04-10T01:48:48.482Z,4.63
2023-04-10T01:51:17.232Z,4.53
2023-04-10T01:53:47.302Z,4.35
2023-04-10T01:56:16.700Z,4.55
2023-04-10T01:58:46.098Z,4.05
2023-04-10T02:01:29.150Z,4.32
2023-04-10T02:03:58.185Z,4.30
2023-04-10T02:06:44.892Z,4.00
2023-04-10T02:09:23.273Z,4.13
2023-04-10T02:12:04.427Z,3.80
2023-04-10T02:14:33.988Z,4.30
2023-04-10T02:17:02.745Z,4.28
2023-04-10T02:19:32.032Z,4.25
2023-04-10T02:21:59.162Z,4.20
2023-04-10T02:24:26.928Z,4.35
2023-04-10T02:26:54.109Z,4.03
2023-04-10T02:29:20.935Z,4.00
2023-04-10T02:31:48.857Z,4.05
2023-04-10T02:34:15.765Z,3.92
2023-04-10T02:36:42.594Z,3.88
2023-04-10T02:39:11.858Z,3.72
2023-04-10T02:41:47.570Z,4.13
2023-04-10T02:44:14.734Z,4.15
2023-04-10T02:46:42.538Z,4.18
2023-04-10T02:49:10.527Z,4.20
2023-04-10T02:51:37.427Z,4.57
2023-04-10T02:54:04.972Z,4.45
2023-04-10T02:56:36.495Z,4.30
2023-04-10T02:59:03.747Z,4.60
2023-04-10T03:01:32.116Z,4.18
2023-04-10T03:03:59.919Z,4.60
2023-04-10T03:06:35.098Z,4.75
2023-04-10T03:09:01.908Z,4.68
2023-04-10T03:11:28.743Z,4.78
2023-04-10T03:13:58.229Z,4.65
2023-04-10T03:16:25.423Z,5.38
2023-04-10T03:18:53.274Z,4.57
2023-04-10T03:21:20.257Z,4.50
2023-04-10T03:23:48.842Z,4.20
2023-04-10T03:26:15.887Z,4.82
2023-04-10T03:28:42.766Z,5.32
2023-04-10T03:31:12.430Z,6.07
2023-04-10T03:33:41.048Z,4.97
2023-04-10T03:36:08.662Z,4.93
2023-04-10T03:38:35.801Z,5.65
2023-04-10T03:41:02.852Z,4.90
2023-04-10T03:43:31.987Z,4.60
2023-04-10T03:46:01.715Z,5.35
2023-04-10T03:48:30.567Z,5.07
2023-04-10T03:50:57.533Z,5.38
2023-04-10T03:53:24.750Z,5.78
2023-04-10T03:55:53.400Z,5.47
2023-04-10T03:58:22.049Z,6.25
2023-04-10T04:00:49.087Z,5.68
2023-04-10T04:03:28.494Z,6.20
2023-04-10T04:06:14.112Z,5.60
2023-04-10T04:09:01.158Z,5.88
2023-04-10T04:11:40.946Z,5.95
2023-04-10T04:14:17.032Z,5.10
2023-04-10T04:17:00.229Z,6.22
2023-04-10T04:19:45.508Z,6.30
2023-04-10T04:22:24.399Z,5.50
2023-04-10T04:24:57.070Z,5.65
2023-04-10T04:27:38.092Z,4.82
2023-04-10T04:30:25.298Z,6.35
2023-04-10T04:33:27.422Z,5.25
2023-04-10T04:36:01.008Z,5.10
2023-04-10T04:38:42.934Z,5.15
2023-04-10T04:41:48.024Z,6.20
2023-04-10T04:44:40.863Z,5.53
2023-04-10T04:47:20.646Z,5.28
2023-04-10T04:50:16.950Z,4.93
2023-04-10T04:53:08.030Z,5.05
2023-04-10T04:55:49.971Z,5.30
2023-04-10T04:58:26.690Z,5.30
2023-04-10T05:01:22.828Z,4.88
2023-04-10T05:04:08.350Z,4.45
2023-04-10T05:06:56.500Z,4.25
2023-04-10T05:09:52.618Z,3.92
2023-04-10T05:12:48.456Z,4.15
2023-04-10T05:15:33.754Z,4.22
2023-04-10T05:18:10.490Z,4.13
2023-04-10T05:21:01.338Z,3.42
2023-04-10T05:23:46.894Z,3.63
2023-04-10T05:26:38.152Z,3.17
2023-04-10T05:29:29.707Z,3.25
2023-04-10T05:32:15.667Z,4.03
2023-04-10T05:35:02.328Z,4.18
2023-04-10T05:37:43.712Z,4.50
2023-04-10T05:40:33.509Z,5.18
2023-04-10T05:43:21.905Z,4.70
2023-04-10T05:46:27.070Z,4.78
2023-04-10T05:49:07.055Z,4.85
2023-04-10T05:51:33.864Z,4.43
2023-04-10T05:54:17.528Z,4.28
2023-04-10T05:56:53.645Z,3.20
2023-04-10T05:59:33.158Z,4.60
2023-04-10T06:04:34.637Z,3.60
2023-04-10T06:07:02.038Z,4.10
2023-04-10T06:09:28.966Z,4.88
2023-04-10T06:11:56.632Z,4.30
2023-04-10T06:14:24.450Z,4.38
2023-04-10T06:16:51.381Z,4.10
2023-04-10T06:19:18.202Z,4.30
2023-04-10T06:21:45.041Z,4.82
2023-04-10T06:24:13.869Z,4.55
2023-04-10T06:26:40.734Z,5.10
2023-04-10T06:29:07.634Z,4.95
2023-04-10T06:31:34.775Z,4.90
2023-04-10T06:34:02.415Z,4.63
2023-04-10T06:36:29.363Z,5.22
2023-04-10T06:39:02.707Z,5.30
2023-04-10T06:41:29.624Z,5.03
2023-04-10T06:44:06.542Z,5.03
2023-04-10T06:46:33.419Z,4.22
2023-04-10T06:49:00.214Z,4.60
2023-04-10T06:51:27.745Z,5.03
2023-04-10T06:53:54.615Z,4.75
2023-04-10T06:56:21.780Z,4.97
2023-04-10T06:58:48.551Z,5.22
2023-04-10T07:01:17.715Z,4.63
2023-04-10T07:03:45.014Z,4.47
2023-04-10T07:06:12.303Z,3.97
2023-04-10T07:08:39.063Z,4.53
2023-04-10T07:11:06.097Z,4.93
2023-04-10T07:13:32.882Z,4.63
2023-04-10T07:15:59.742Z,4.72
2023-04-10T07:18:27.127Z,4.38
2023-04-10T07:20:54.161Z,4.18
2023-04-10T07:23:21.238Z,3.72
2023-04-10T07:25:48.095Z,4.28
2023-04-10T07:28:14.899Z,4.13
2023-04-10T07:30:41.868Z,4.22
2023-04-10T07:33:08.908Z,3.70
2023-04-10T07:35:36.796Z,4.03
2023-04-10T07:38:04.558Z,3.72
2023-04-10T07:40:31.411Z,3.80
2023-04-10T07:42:58.225Z,4.00
2023-04-10T07:45:25.262Z,3.58
2023-04-10T07:47:52.147Z,3.95
2023-04-10T07:50:19.045Z,4.10
2023-04-10T07:52:45.817Z,3.35
2023-04-10T07:55:12.602Z,3.45
2023-04-10T07:57:41.609Z,3.33
2023-04-10T08:00:09.530Z,3.63
2023-04-10T08:02:42.728Z,3.42
2023-04-10T08:05:09.942Z,3.33
2023-04-10T08:07:37.857Z,3.45
2023-04-10T08:10:05.031Z,3.30
2023-04-10T08:12:34.420Z,3.17
2023-04-10T08:15:01.236Z,2.90
2023-04-10T08:17:28.151Z,3.00
2023-04-10T08:19:54.933Z,3.00
2023-04-10T08:22:21.769Z,3.42
2023-04-10T08:24:48.603Z,2.67
2023-04-10T08:27:16.369Z,3.28
2023-04-10T08:29:43.697Z,2.97
2023-04-10T08:32:10.597Z,3.17
2023-04-10T08:34:37.484Z,2.67
2023-04-10T08:37:11.372Z,2.88
2023-04-10T08:39:39.234Z,3.20
2023-04-10T08:42:07.316Z,3.00
2023-04-10T08:44:35.899Z,2.75
2023-04-10T08:47:03.566Z,3.03
2023-04-10T08:49:47.972Z,2.88
2023-04-10T08:52:18.119Z,2.67
2023-04-10T08:54:50.823Z,2.60
2023-04-10T08:57:19.961Z,2.53
2023-04-10T08:59:47.950Z,2.42
2023-04-10T09:02:15.003Z,2.60
2023-04-10T09:04:50.393Z,2.53
2023-04-10T09:07:18.059Z,2.50
2023-04-10T09:09:45.309Z,2.08
2023-04-10T09:12:14.105Z,2.10
2023-04-10T09:14:41.956Z,2.10
2023-04-10T09:17:19.034Z,2.13
2023-04-10T09:19:54.005Z,2.13
2023-04-10T09:22:35.400Z,2.13
2023-04-10T09:25:04.317Z,1.95
2023-04-10T09:27:37.506Z,1.90
2023-04-10T09:30:07.078Z,1.90
2023-04-10T09:32:36.990Z,2.20
2023-04-10T09:35:05.775Z,1.83
2023-04-10T09:37:33.648Z,1.63
2023-04-10T09:40:00.787Z,1.90
2023-04-10T09:42:37.627Z,1.70
2023-04-10T09:45:05.299Z,1.52
2023-04-10T09:47:33.446Z,1.33
2023-04-10T09:50:01.236Z,1.70
2023-04-10T09:52:29.947Z,1.70
2023-04-10T09:54:59.484Z,1.90
2023-04-10T09:57:28.625Z,1.80
2023-04-10T09:59:57.639Z,1.45
2023-04-10T10:02:27.707Z,1.60
2023-04-10T10:04:55.620Z,1.88
2023-04-10T10:07:23.754Z,1.50
2023-04-10T10:09:52.238Z,1.58
2023-04-10T10:12:40.367Z,1.50
2023-04-10T10:15:17.100Z,1.40
2023-04-10T10:17:51.440Z,1.42
2023-04-10T10:22:47.281Z,1.60
2023-04-10T10:25:14.296Z,1.60
2023-04-10T10:27:42.338Z,1.35
2023-04-10T10:30:28.255Z,1.60
2023-04-10T10:32:58.843Z,1.38
2023-04-10T10:35:29.539Z,1.40
2023-04-10T10:38:00.350Z,1.70
2023-04-10T10:40:32.717Z,1.50
2023-04-10T10:43:33.535Z,1.50
2023-04-10T10:46:24.011Z,1.70
2023-04-10T10:49:00.737Z,1.55
2023-04-10T10:51:49.822Z,1.45
2023-04-10T10:54:34.345Z,1.50
2023-04-10T10:57:03.062Z,1.40
2023-04-10T10:59:48.341Z,1.42
2023-04-10T11:02:16.995Z,1.48
2023-04-10T11:04:45.807Z,1.58
2023-04-10T11:07:13.963Z,1.33
2023-04-10T11:09:54.642Z,1.48
2023-04-10T11:12:25.508Z,1.40
2023-04-10T11:15:10.845Z,1.40
2023-04-10T11:17:51.801Z,1.50
2023-04-10T11:20:21.990Z,1.50
2023-04-10T11:23:08.098Z,1.15
2023-04-10T11:25:52.093Z,1.27
2023-04-10T11:28:35.647Z,1.50
2023-04-10T11:31:19.780Z,1.38
2023-04-10T11:34:02.059Z,1.52
2023-04-10T11:36:28.987Z,1.40
2023-04-10T11:38:56.746Z,1.42
2023-04-10T11:41:34.714Z,1.50
2023-04-10T11:44:03.320Z,1.33
2023-04-10T11:46:31.749Z,1.60
2023-04-10T11:49:04.913Z,1.52
2023-04-10T11:51:32.486Z,1.65
2023-04-10T11:54:12.283Z,1.63
2023-04-10T11:56:41.360Z,1.63
2023-04-10T11:59:13.432Z,1.40
2023-04-10T12:01:43.015Z,1.38
2023-04-10T12:04:14.442Z,1.42
2023-04-10T12:06:47.813Z,1.60
2023-04-10T12:09:19.847Z,1.60
2023-04-10T12:12:00.755Z,1.58
2023-04-10T12:14:38.288Z,1.85
2023-04-10T12:17:08.544Z,1.83
2023-04-10T12:19:36.661Z,1.50
2023-04-10T12:22:03.692Z,1.67
2023-04-10T12:24:46.712Z,1.65
2023-04-10T12:27:17.612Z,1.60
2023-04-10T12:29:45.953Z,1.48
2023-04-10T12:32:12.975Z,1.55
2023-04-10T12:34:40.189Z,1.70
2023-04-10T12:37:07.886Z,1.60
2023-04-10T12:39:34.723Z,1.45
2023-04-10T12:42:22.480Z,1.60
2023-04-10T12:44:57.353Z,1.60
2023-04-10T12:47:25.086Z,1.75
2023-04-10T12:50:10.796Z,1.90
2023-04-10T12:52:40.432Z,1.83
2023-04-10T12:55:17.137Z,1.90
2023-04-10T12:57:46.170Z,1.63
2023-04-10T13:00:15.740Z,1.40
2023-04-10T13:02:43.039Z,1.50
2023-04-10T13:05:11.354Z,1.55
2023-04-10T13:07:38.688Z,1.70
2023-04-10T13:10:07.485Z,2.00
2023-04-10T13:12:36.252Z,1.85
2023-04-10T13:15:03.350Z,1.63
2023-04-10T13:17:30.378Z,1.83
2023-04-10T13:19:57.242Z,1.73
2023-04-10T13:22:24.111Z,1.75
2023-04-10T13:24:50.966Z,1.85
2023-04-10T13:27:17.899Z,1.60
2023-04-10T13:29:44.789Z,1.60
2023-04-10T13:32:11.677Z,1.52
2023-04-10T13:34:38.511Z,1.70
2023-04-10T13:37:05.406Z,1.80
2023-04-10T13:39:32.361Z,1.70
2023-04-10T13:41:59.798Z,1.60
2023-04-10T13:44:26.689Z,1.58
2023-04-10T13:46:54.018Z,1.50
2023-04-10T13:49:22.261Z,1.50
2023-04-10T13:51:49.255Z,1.50
2023-04-10T13:54:19.918Z,1.70
2023-04-10T13:56:46.984Z,1.80
2023-04-10T13:59:14.330Z,1.45
2023-04-10T14:01:41.363Z,1.50
2023-04-10T14:04:08.512Z,1.60
2023-04-10T14:06:35.714Z,1.50
2023-04-10T14:09:02.714Z,1.40
2023-04-10T14:11:29.901Z,1.63
2023-04-10T14:13:56.746Z,1.38
2023-04-10T14:16:23.764Z,1.25
2023-04-10T14:18:50.679Z,1.70
2023-04-10T14:21:19.438Z,1.55
2023-04-10T14:23:47.906Z,1.50
2023-04-10T14:26:14.796Z,1.50
2023-04-10T14:28:42.390Z,1.50
2023-04-10T14:31:09.409Z,1.30
2023-04-10T14:33:36.306Z,1.30
2023-04-10T14:36:03.380Z,1.33
2023-04-10T14:38:30.492Z,1.35
2023-04-10T14:40:57.423Z,1.23
2023-04-10T14:43:24.213Z,1.45
2023-04-10T14:45:51.055Z,1.30
2023-04-10T14:48:19.855Z,1.40
2023-04-10T14:50:48.246Z,1.40
2023-04-10T14:53:15.691Z,1.30
2023-04-10T14:55:42.621Z,0.98
2023-04-10T14:58:11.135Z,1.20
2023-04-10T15:00:38.055Z,1.20
2023-04-10T15:03:06.215Z,1.33
2023-04-10T15:05:33.325Z,1.33
2023-04-10T15:08:00.242Z,1.33
2023-04-10T15:10:30.377Z,1.50
2023-04-10T15:12:57.264Z,1.25
2023-04-10T15:15:24.062Z,1.30
2023-04-10T15:17:50.901Z,1.40
2023-04-10T15:20:17.809Z,1.33
2023-04-10T15:22:45.123Z,1.20
2023-04-10T15:25:12.248Z,1.20
2023-04-10T15:27:39.440Z,1.20
2023-04-10T15:30:07.079Z,1.30
2023-04-10T15:32:34.026Z,1.33
2023-04-10T15:35:01.002Z,1.38
2023-04-10T15:37:27.805Z,1.27
2023-04-10T15:39:54.741Z,1.20
2023-04-10T15:42:21.711Z,1.10
2023-04-10T15:44:49.194Z,1.08
2023-04-10T15:47:16.307Z,1.17
2023-04-10T15:49:43.298Z,1.23
2023-04-10T15:52:10.171Z,1.20
2023-04-10T15:54:39.685Z,1.40
2023-04-10T15:57:06.698Z,1.20
2023-04-10T15:59:34.220Z,1.10
2023-04-10T16:02:01.187Z,1.13
2023-04-10T16:04:28.999Z,1.17
2023-04-10T16:06:56.712Z,1.10
2023-04-10T16:09:26.415Z,1.33
2023-04-10T16:11:54.593Z,1.10
2023-04-10T16:14:22.441Z,1.20
2023-04-10T16:16:49.558Z,1.30
2023-04-10T16:19:16.420Z,1.10
2023-04-10T16:21:43.233Z,1.20
2023-04-10T16:24:10.211Z,1.27
2023-04-10T16:26:38.508Z,1.20
2023-04-10T16:29:06.613Z,1.15
2023-04-10T16:31:38.809Z,1.30
2023-04-10T16:34:08.247Z,1.00
2023-04-10T16:36:35.189Z,1.20
2023-04-10T16:39:02.009Z,1.10
2023-04-10T16:41:28.813Z,1.08
2023-04-10T16:43:56.280Z,1.17
2023-04-10T16:46:23.146Z,1.23
2023-04-10T16:48:51.219Z,1.10
2023-04-10T16:51:18.426Z,1.00
2023-04-10T16:53:45.523Z,1.08
2023-04-10T16:56:12.409Z,1.20
2023-04-10T16:58:41.146Z,1.08
2023-04-10T17:01:21.640Z,1.17
2023-04-10T17:03:49.097Z,1.05
2023-04-10T17:06:16.396Z,1.23
2023-04-10T17:08:44.197Z,1.00
2023-04-10T17:11:12.765Z,1.13
2023-04-10T17:13:42.385Z,1.10
2023-04-10T17:16:10.028Z,1.17
2023-04-10T17:18:36.954Z,1.25
2023-04-10T17:21:04.111Z,1.38
2023-04-10T17:23:30.994Z,1.35
2023-04-10T17:25:58.028Z,1.00
2023-04-10T17:28:24.839Z,1.30
2023-04-10T17:30:51.746Z,1.40
2023-04-10T17:33:18.609Z,1.30
2023-04-10T17:35:45.426Z,1.33
2023-04-10T17:38:13.465Z,1.35
2023-04-10T17:40:41.438Z,1.42
2023-04-10T17:43:08.993Z,1.38
2023-04-10T17:45:40.026Z,1.55
2023-04-10T17:48:07.435Z,1.02
2023-04-10T17:50:34.500Z,1.50
2023-04-10T17:53:01.528Z,1.40
2023-04-10T17:55:28.445Z,1.40
2023-04-10T17:57:58.497Z,1.40
2023-04-10T18:00:25.794Z,1.50
2023-04-10T18:02:58.060Z,1.30
2023-04-10T18:05:25.501Z,1.55
2023-04-10T18:07:52.356Z,1.83
2023-04-10T18:10:19.373Z,1.75
2023-04-10T18:12:46.437Z,1.48
2023-04-10T18:15:16.399Z,1.60
2023-04-10T18:17:43.358Z,1.70
2023-04-10T18:20:10.803Z,1.60
2023-04-10T18:22:37.759Z,1.70
2023-04-10T18:25:05.351Z,1.60
2023-04-10T18:27:34.768Z,1.40
2023-04-10T18:30:02.122Z,1.20
2023-04-10T18:32:31.495Z,1.45
2023-04-10T18:34:59.892Z,1.40
2023-04-10T18:37:26.805Z,1.30
2023-04-10T18:39:55.456Z,1.80
2023-04-10T18:42:25.107Z,1.48
2023-04-10T18:44:52.496Z,1.50
2023-04-10T18:47:19.488Z,1.60
2023-04-10T18:49:46.764Z,1.63
2023-04-10T18:52:13.565Z,1.58
2023-04-10T18:54:41.161Z,1.48
2023-04-10T18:57:08.028Z,1.30
2023-04-10T18:59:37.783Z,1.60
2023-04-10T19:02:04.979Z,1.60
2023-04-10T19:04:32.008Z,1.40
2023-04-10T19:06:58.894Z,1.50
2023-04-10T19:09:25.886Z,1.33
2023-04-10T19:11:53.772Z,1.50
2023-04-10T19:14:20.541Z,1.45
2023-04-10T19:16:47.330Z,1.20
2023-04-10T19:19:14.322Z,1.55
2023-04-10T19:21:41.137Z,1.42
2023-04-10T19:24:08.159Z,1.60
2023-04-10T19:26:35.232Z,1.50
2023-04-10T19:29:02.211Z,1.52
2023-04-10T19:31:29.744Z,1.70
2023-04-10T19:33:56.786Z,1.40
2023-04-10T19:36:23.588Z,1.40
2023-04-10T19:38:51.244Z,1.42
2023-04-10T19:41:19.158Z,1.50
2023-04-10T19:43:46.244Z,1.60
2023-04-10T19:46:17.742Z,1.30
2023-04-10T19:48:45.255Z,1.40
2023-04-10T19:51:12.150Z,1.70
2023-04-10T19:53:39.357Z,1.80
2023-04-10T19:56:07.001Z,1.55
2023-04-10T19:58:40.664Z,1.60
2023-04-10T20:01:09.265Z,1.70
2023-04-10T20:03:37.617Z,1.50
2023-04-10T20:06:07.446Z,1.63
2023-04-10T20:08:34.737Z,1.70
2023-04-10T20:11:02.066Z,1.80
2023-04-10T20:13:28.899Z,2.35
2023-04-10T20:15:55.735Z,1.90
2023-04-10T20:18:22.600Z,2.03
2023-04-10T20:20:49.515Z,1.90
2023-04-10T20:23:16.379Z,1.63
2023-04-10T20:25:43.278Z,1.70
2023-04-10T20:28:10.374Z,1.70
2023-04-10T20:30:40.003Z,1.80
2023-04-10T20:33:06.933Z,1.65
2023-04-10T20:35:33.828Z,1.30
2023-04-10T20:38:00.664Z,2.25
2023-04-10T20:40:27.763Z,2.13
2023-04-10T20:42:54.621Z,1.60
2023-04-10T20:45:21.425Z,1.80
2023-04-10T20:47:48.319Z,1.67
2023-04-10T20:50:15.356Z,1.50
2023-04-10T20:52:42.250Z,1.60
2023-04-10T20:55:09.330Z,1.45
2023-04-10T20:57:36.226Z,1.42
2023-04-10T21:00:03.167Z,1.50
2023-04-10T21:02:30.407Z,1.58
2023-04-10T21:04:57.363Z,1.50
2023-04-10T21:07:24.470Z,1.30
2023-04-10T21:09:51.282Z,1.40
2023-04-10T21:12:18.147Z,1.45
2023-04-10T21:14:45.853Z,1.33
2023-04-10T21:17:12.681Z,1.40
2023-04-10T21:19:39.500Z,1.40
2023-04-10T21:22:06.439Z,1.38
2023-04-10T21:24:33.274Z,1.42
2023-04-10T21:27:00.096Z,1.50
2023-04-10T21:29:26.929Z,1.42
2023-04-10T21:31:53.853Z,1.30
2023-04-10T21:34:20.720Z,1.40
2023-04-10T21:36:47.519Z,1.55
2023-04-10T21:39:14.437Z,1.58
2023-04-10T21:41:41.292Z,1.17
2023-04-10T21:44:08.756Z,1.40
2023-04-10T21:46:35.686Z,1.50
2023-04-10T21:49:03.106Z,1.50
2023-04-10T21:51:30.095Z,1.50
2023-04-10T21:53:57.005Z,1.20
2023-04-10T21:56:47.317Z,1.40
2023-04-10T21:59:14.222Z,1.40
2023-04-10T22:01:41.787Z,1.30
2023-04-10T22:04:08.837Z,1.30
2023-04-10T22:06:35.761Z,1.27
2023-04-10T22:09:02.576Z,1.30
2023-04-10T22:11:29.395Z,1.33
2023-04-10T22:13:58.265Z,1.23
2023-04-10T22:16:29.755Z,1.40
2023-04-10T22:18:56.717Z,1.20
2023-04-10T22:21:23.608Z,1.30
2023-04-10T22:23:50.473Z,1.15
2023-04-10T22:26:20.272Z,1.38
2023-04-10T22:28:47.144Z,1.30
2023-04-10T22:31:18.112Z,1.20
2023-04-10T22:33:45.033Z,1.30
2023-04-10T22:36:12.239Z,1.30
2023-04-10T22:38:39.075Z,1.13
2023-04-10T22:41:06.672Z,1.25
2023-04-10T22:43:36.645Z,1.45
2023-04-10T22:46:03.610Z,1.60
2023-04-10T22:48:30.636Z,1.02
2023-04-10T22:50:57.574Z,1.45
2023-04-10T22:53:24.466Z,1.40
2023-04-10T22:55:51.585Z,1.30
2023-04-10T22:58:18.436Z,1.10
2023-04-10T23:00:45.227Z,1.13
2023-04-10T23:03:12.192Z,1.10
2023-04-10T23:05:39.022Z,1.00
2023-04-10T23:08:05.880Z,1.30
2023-04-10T23:10:32.690Z,1.30
2023-04-10T23:12:59.503Z,1.10
2023-04-10T23:15:26.344Z,1.38
2023-04-10T23:17:53.227Z,1.00
2023-04-10T23:20:20.079Z,1.20
2023-04-10T23:22:46.973Z,1.00
2023-04-10T23:25:14.804Z,1.05
2023-04-10T23:27:42.768Z,1.20
2023-04-10T23:30:09.782Z,1.20
2023-04-10T23:32:36.601Z,1.02
2023-04-10T23:35:03.596Z,1.00
2023-04-10T23:37:33.791Z,1.10
2023-04-10T23:40:00.749Z,1.00
2023-04-10T23:42:27.679Z,0.90
2023-04-10T23:44:54.671Z,1.10
2023-04-10T23:47:21.569Z,0.90
2023-04-10T23:49:48.469Z,0.98
2023-04-10T23:52:15.616Z,1.10
2023-04-10T23:54:43.746Z,1.10
2023-04-10T23:57:10.644Z,1.05
2023-04-10T23:59:37.504Z,0.98
